METAR Data
IDs: Format: Raw Decoded Include TAF

Data at: 1156 UTC 21 Oct 2018

NZWN 211130Z AUTO 02010KT 9999 NCD 13/11 Q1027 NOSIG
NZWN 211100Z AUTO 02008KT 9999 NCD 13/11 Q1027 NOSIG
NZWN 211030Z AUTO 01009KT 9999 NCD 13/11 Q1026 NOSIG
NZWN 211000Z AUTO 01010KT 9999 NCD 13/11 Q1026 NOSIG
NZWN 210930Z AUTO 01008KT 9999 NCD 13/10 Q1026 NOSIG
NZWN 210900Z AUTO 01010KT 9999 NCD 13/11 Q1026 NOSIG

TAF NZWN 211115Z 2112/2212 02012KT CAVOK